sensor_id;sensor_type;location;lat;lon;timestamp;pressure;altitude;pressure_sealevel;temperature
69186;BMP280;56298;49.246;9.410;2023-05-10T00:01:12;98742.53;;;14.82
69186;BMP280;56298;49.246;9.410;2023-05-10T00:03:38;98742.16;;;14.84
69186;BMP280;56298;49.246;9.410;2023-05-10T00:06:03;98745.69;;;14.81
69186;BMP280;56298;49.246;9.410;2023-05-10T00:08:28;98747.31;;;14.71
69186;BMP280;56298;49.246;9.410;2023-05-10T00:10:53;98748.53;;;14.59
69186;BMP280;56298;49.246;9.410;2023-05-10T00:13:19;98752.09;;;14.49
69186;BMP280;56298;49.246;9.410;2023-05-10T00:15:44;98753.66;;;14.50
69186;BMP280;56298;49.246;9.410;2023-05-10T00:18:09;98754.81;;;14.56
69186;BMP280;56298;49.246;9.410;2023-05-10T00:20:35;98750.50;;;14.59
69186;BMP280;56298;49.246;9.410;2023-05-10T00:23:00;98751.69;;;14.65
69186;BMP280;56298;49.246;9.410;2023-05-10T00:25:25;98758.38;;;14.60
69186;BMP280;56298;49.246;9.410;2023-05-10T00:27:51;98759.53;;;14.63
69186;BMP280;56298;49.246;9.410;2023-05-10T00:30:17;98759.16;;;14.61
69186;BMP280;56298;49.246;9.410;2023-05-10T00:32:43;98758.00;;;14.58
69186;BMP280;56298;49.246;9.410;2023-05-10T00:35:08;98762.31;;;14.52
69186;BMP280;56298;49.246;9.410;2023-05-10T00:37:33;98763.91;;;14.49
69186;BMP280;56298;49.246;9.410;2023-05-10T00:39:59;98765.13;;;14.30
69186;BMP280;56298;49.246;9.410;2023-05-10T00:42:24;98765.91;;;14.27
69186;BMP280;56298;49.246;9.410;2023-05-10T00:44:50;98769.88;;;14.26
69186;BMP280;56298;49.246;9.410;2023-05-10T00:47:16;98768.28;;;14.32
69186;BMP280;56298;49.246;9.410;2023-05-10T00:49:42;98776.16;;;14.34
69186;BMP280;56298;49.246;9.410;2023-05-10T00:52:08;98769.84;;;14.22
69186;BMP280;56298;49.246;9.410;2023-05-10T00:54:34;98767.88;;;14.30
69186;BMP280;56298;49.246;9.410;2023-05-10T00:56:59;98770.63;;;14.27
69186;BMP280;56298;49.246;9.410;2023-05-10T00:59:24;98766.31;;;14.29
69186;BMP280;56298;49.246;9.410;2023-05-10T01:01:50;98775.00;;;14.28
69186;BMP280;56298;49.246;9.410;2023-05-10T01:04:16;98770.25;;;14.24
69186;BMP280;56298;49.246;9.410;2023-05-10T01:06:42;98764.31;;;14.30
69186;BMP280;56298;49.246;9.410;2023-05-10T01:09:08;98769.06;;;14.29
69186;BMP280;56298;49.246;9.410;2023-05-10T01:11:37;98774.16;;;14.31
69186;BMP280;56298;49.246;9.410;2023-05-10T01:14:25;98767.09;;;14.30
69186;BMP280;56298;49.246;9.410;2023-05-10T01:16:52;98774.59;;;14.29
69186;BMP280;56298;49.246;9.410;2023-05-10T01:19:27;98772.63;;;14.15
69186;BMP280;56298;49.246;9.410;2023-05-10T01:27:20;98774.19;;;14.16
69186;BMP280;56298;49.246;9.410;2023-05-10T01:30:01;98780.50;;;14.17
69186;BMP280;56298;49.246;9.410;2023-05-10T01:35:42;98787.22;;;14.16
69186;BMP280;56298;49.246;9.410;2023-05-10T01:38:29;98778.13;;;14.19
69186;BMP280;56298;49.246;9.410;2023-05-10T01:43:33;98786.81;;;14.06
69186;BMP280;56298;49.246;9.410;2023-05-10T01:46:16;98779.72;;;14.09
69186;BMP280;56298;49.246;9.410;2023-05-10T01:48:48;98786.03;;;14.02
69186;BMP280;56298;49.246;9.410;2023-05-10T01:51:22;98792.69;;;14.01
69186;BMP280;56298;49.246;9.410;2023-05-10T01:53:49;98788.78;;;14.02
69186;BMP280;56298;49.246;9.410;2023-05-10T01:56:15;98800.16;;;14.04
69186;BMP280;56298;49.246;9.410;2023-05-10T01:58:43;98793.88;;;14.15
69186;BMP280;56298;49.246;9.410;2023-05-10T02:01:10;98793.88;;;14.11
69186;BMP280;56298;49.246;9.410;2023-05-10T02:03:38;98796.25;;;14.13
69186;BMP280;56298;49.246;9.410;2023-05-10T02:06:04;98800.19;;;14.12
69186;BMP280;56298;49.246;9.410;2023-05-10T02:08:30;98809.66;;;14.14
69186;BMP280;56298;49.246;9.410;2023-05-10T02:10:58;98808.47;;;14.12
69186;BMP280;56298;49.246;9.410;2023-05-10T02:13:24;98807.25;;;14.05
69186;BMP280;56298;49.246;9.410;2023-05-10T02:15:51;98807.69;;;14.07
69186;BMP280;56298;49.246;9.410;2023-05-10T02:18:17;98812.41;;;14.00
69186;BMP280;56298;49.246;9.410;2023-05-10T02:20:45;98813.56;;;13.99
69186;BMP280;56298;49.246;9.410;2023-05-10T02:23:11;98812.00;;;13.94
69186;BMP280;56298;49.246;9.410;2023-05-10T02:25:37;98807.66;;;14.00
69186;BMP280;56298;49.246;9.410;2023-05-10T02:28:05;98818.28;;;13.84
69186;BMP280;56298;49.246;9.410;2023-05-10T02:30:32;98819.84;;;13.85
69186;BMP280;56298;49.246;9.410;2023-05-10T02:32:59;98822.19;;;13.82
69186;BMP280;56298;49.246;9.410;2023-05-10T02:35:26;98832.03;;;13.80
69186;BMP280;56298;49.246;9.410;2023-05-10T02:37:52;98824.56;;;13.80
69186;BMP280;56298;49.246;9.410;2023-05-10T02:40:19;98834.03;;;13.76
69186;BMP280;56298;49.246;9.410;2023-05-10T02:42:47;98826.13;;;13.74
69186;BMP280;56298;49.246;9.410;2023-05-10T02:45:17;98826.91;;;13.78
69186;BMP280;56298;49.246;9.410;2023-05-10T02:47:43;98832.41;;;13.64
69186;BMP280;56298;49.246;9.410;2023-05-10T02:50:09;98831.63;;;13.67
69186;BMP280;56298;49.246;9.410;2023-05-10T02:52:46;98830.06;;;13.70
69186;BMP280;56298;49.246;9.410;2023-05-10T02:55:14;98825.31;;;13.66
69186;BMP280;56298;49.246;9.410;2023-05-10T02:57:45;98832.81;;;13.70
69186;BMP280;56298;49.246;9.410;2023-05-10T03:00:12;98838.72;;;13.72
69186;BMP280;56298;49.246;9.410;2023-05-10T03:02:37;98835.56;;;13.73
69186;BMP280;56298;49.246;9.410;2023-05-10T03:05:03;98841.06;;;13.73
69186;BMP280;56298;49.246;9.410;2023-05-10T03:07:28;98845.00;;;13.72
69186;BMP280;56298;49.246;9.410;2023-05-10T03:09:54;98844.25;;;13.75
69186;BMP280;56298;49.246;9.410;2023-05-10T03:13:06;98845.03;;;13.83
69186;BMP280;56298;49.246;9.410;2023-05-10T03:16:13;98854.50;;;13.82
69186;BMP280;56298;49.246;9.410;2023-05-10T03:18:44;98851.72;;;13.86
69186;BMP280;56298;49.246;9.410;2023-05-10T03:21:11;98860.38;;;13.80
69186;BMP280;56298;49.246;9.410;2023-05-10T03:23:44;98856.44;;;13.81
69186;BMP280;56298;49.246;9.410;2023-05-10T03:26:17;98856.47;;;13.85
69186;BMP280;56298;49.246;9.410;2023-05-10T03:28:43;98858.44;;;13.88
69186;BMP280;56298;49.246;9.410;2023-05-10T03:31:09;98858.06;;;13.93
69186;BMP280;56298;49.246;9.410;2023-05-10T03:33:34;98862.00;;;13.96
69186;BMP280;56298;49.246;9.410;2023-05-10T03:35:59;98861.63;;;13.90
69186;BMP280;56298;49.246;9.410;2023-05-10T03:38:25;98867.13;;;13.94
69186;BMP280;56298;49.246;9.410;2023-05-10T03:40:50;98866.72;;;13.88
69186;BMP280;56298;49.246;9.410;2023-05-10T03:43:15;98867.50;;;13.96
69186;BMP280;56298;49.246;9.410;2023-05-10T03:45:41;98854.53;;;13.96
69186;BMP280;56298;49.246;9.410;2023-05-10T03:48:06;98869.88;;;14.01
69186;BMP280;56298;49.246;9.410;2023-05-10T03:50:31;98871.47;;;14.06
69186;BMP280;56298;49.246;9.410;2023-05-10T03:52:56;98867.91;;;13.98
69186;BMP280;56298;49.246;9.410;2023-05-10T03:55:23;98869.13;;;13.97
69186;BMP280;56298;49.246;9.410;2023-05-10T03:57:48;98868.69;;;13.99
69186;BMP280;56298;49.246;9.410;2023-05-10T04:00:14;98869.88;;;14.01
69186;BMP280;56298;49.246;9.410;2023-05-10T04:02:40;98862.00;;;13.96
69186;BMP280;56298;49.246;9.410;2023-05-10T04:05:06;98868.72;;;14.02
69186;BMP280;56298;49.246;9.410;2023-05-10T04:07:31;98872.28;;;14.06
69186;BMP280;56298;49.246;9.410;2023-05-10T04:09:56;98869.13;;;14.12
69186;BMP280;56298;49.246;9.410;2023-05-10T04:12:22;98873.06;;;14.18
69186;BMP280;56298;49.246;9.410;2023-05-10T04:14:47;98871.47;;;14.13
69186;BMP280;56298;49.246;9.410;2023-05-10T04:17:12;98871.84;;;14.08
69186;BMP280;56298;49.246;9.410;2023-05-10T04:19:38;98874.63;;;14.19
69186;BMP280;56298;49.246;9.410;2023-05-10T04:22:03;98876.59;;;14.15
69186;BMP280;56298;49.246;9.410;2023-05-10T04:24:28;98877.00;;;14.09
69186;BMP280;56298;49.246;9.410;2023-05-10T04:26:54;98886.84;;;14.14
69186;BMP280;56298;49.246;9.410;2023-05-10T04:29:20;98881.34;;;14.21
69186;BMP280;56298;49.246;9.410;2023-05-10T04:31:45;98881.72;;;14.20
69186;BMP280;56298;49.246;9.410;2023-05-10T04:34:10;98879.75;;;14.20
69186;BMP280;56298;49.246;9.410;2023-05-10T04:36:35;98877.03;;;14.28
69186;BMP280;56298;49.246;9.410;2023-05-10T04:39:02;98879.78;;;14.35
69186;BMP280;56298;49.246;9.410;2023-05-10T04:41:30;98886.84;;;14.36
69186;BMP280;56298;49.246;9.410;2023-05-10T04:43:56;98884.09;;;14.50
69186;BMP280;56298;49.246;9.410;2023-05-10T04:46:21;98888.06;;;14.57
69186;BMP280;56298;49.246;9.410;2023-05-10T04:48:46;98890.00;;;14.67
69186;BMP280;56298;49.246;9.410;2023-05-10T04:51:12;98890.81;;;14.67
69186;BMP280;56298;49.246;9.410;2023-05-10T04:53:37;98894.34;;;14.79
69186;BMP280;56298;49.246;9.410;2023-05-10T04:56:02;98891.59;;;14.72
69186;BMP280;56298;49.246;9.410;2023-05-10T04:58:28;98897.13;;;14.64
69186;BMP280;56298;49.246;9.410;2023-05-10T05:00:53;98899.88;;;14.64
69186;BMP280;56298;49.246;9.410;2023-05-10T05:03:18;98906.59;;;14.63
69186;BMP280;56298;49.246;9.410;2023-05-10T05:05:44;98897.53;;;14.66
69186;BMP280;56298;49.246;9.410;2023-05-10T05:08:10;98903.44;;;14.68
69186;BMP280;56298;49.246;9.410;2023-05-10T05:10:35;98910.53;;;14.66
69186;BMP280;56298;49.246;9.410;2023-05-10T05:13:00;98906.16;;;14.76
69186;BMP280;56298;49.246;9.410;2023-05-10T05:15:25;98908.16;;;14.86
69186;BMP280;56298;49.246;9.410;2023-05-10T05:17:51;98912.47;;;14.87
69186;BMP280;56298;49.246;9.410;2023-05-10T05:20:16;98915.59;;;14.93
69186;BMP280;56298;49.246;9.410;2023-05-10T05:22:42;98920.75;;;14.94
69186;BMP280;56298;49.246;9.410;2023-05-10T05:25:07;98919.16;;;15.08
69186;BMP280;56298;49.246;9.410;2023-05-10T05:27:33;98912.44;;;15.09
69186;BMP280;56298;49.246;9.410;2023-05-10T05:29:58;98920.34;;;15.00
69186;BMP280;56298;49.246;9.410;2023-05-10T05:32:24;98929.00;;;15.05
69186;BMP280;56298;49.246;9.410;2023-05-10T05:34:50;98927.03;;;15.09
69186;BMP280;56298;49.246;9.410;2023-05-10T05:37:18;98921.94;;;14.93
69186;BMP280;56298;49.246;9.410;2023-05-10T05:39:44;98928.66;;;14.89
69186;BMP280;56298;49.246;9.410;2023-05-10T05:42:10;98936.13;;;15.03
69186;BMP280;56298;49.246;9.410;2023-05-10T05:44:35;98934.56;;;14.94
69186;BMP280;56298;49.246;9.410;2023-05-10T05:47:01;98939.66;;;14.85
69186;BMP280;56298;49.246;9.410;2023-05-10T05:49:26;98939.28;;;14.90
69186;BMP280;56298;49.246;9.410;2023-05-10T05:51:51;98939.28;;;14.98
69186;BMP280;56298;49.246;9.410;2023-05-10T05:54:17;98944.41;;;15.10
69186;BMP280;56298;49.246;9.410;2023-05-10T05:56:42;98947.13;;;15.28
69186;BMP280;56298;49.246;9.410;2023-05-10T05:59:07;98947.91;;;15.32
69186;BMP280;56298;49.246;9.410;2023-05-10T06:01:33;98955.44;;;15.24
69186;BMP280;56298;49.246;9.410;2023-05-10T06:03:58;98954.19;;;15.47
69186;BMP280;56298;49.246;9.410;2023-05-10T06:06:23;98960.03;;;15.67
69186;BMP280;56298;49.246;9.410;2023-05-10T06:08:48;98956.75;;;15.94
69186;BMP280;56298;49.246;9.410;2023-05-10T06:11:14;98951.22;;;15.94
69186;BMP280;56298;49.246;9.410;2023-05-10T06:13:39;98951.13;;;16.13
69186;BMP280;56298;49.246;9.410;2023-05-10T06:16:05;98959.34;;;16.27
69186;BMP280;56298;49.246;9.410;2023-05-10T06:18:30;98963.03;;;16.06
69186;BMP280;56298;49.246;9.410;2023-05-10T06:20:56;98964.16;;;16.12
69186;BMP280;56298;49.246;9.410;2023-05-10T06:23:21;98954.19;;;16.25
69186;BMP280;56298;49.246;9.410;2023-05-10T06:25:47;98950.94;;;16.38
69186;BMP280;56298;49.246;9.410;2023-05-10T06:28:12;98956.25;;;16.18
69186;BMP280;56298;49.246;9.410;2023-05-10T06:30:38;98947.47;;;16.26
69186;BMP280;56298;49.246;9.410;2023-05-10T06:33:03;98940.16;;;16.54
69186;BMP280;56298;49.246;9.410;2023-05-10T06:35:28;98947.78;;;16.85
69186;BMP280;56298;49.246;9.410;2023-05-10T06:37:54;98946.44;;;17.01
69186;BMP280;56298;49.246;9.410;2023-05-10T06:40:20;98952.84;;;17.36
69186;BMP280;56298;49.246;9.410;2023-05-10T06:42:46;98957.00;;;17.51
69186;BMP280;56298;49.246;9.410;2023-05-10T06:45:12;98956.81;;;17.35
69186;BMP280;56298;49.246;9.410;2023-05-10T06:47:37;98955.94;;;17.38
69186;BMP280;56298;49.246;9.410;2023-05-10T06:50:03;98964.19;;;17.45
69186;BMP280;56298;49.246;9.410;2023-05-10T06:52:28;98965.53;;;17.30
69186;BMP280;56298;49.246;9.410;2023-05-10T06:54:53;98962.41;;;17.27
69186;BMP280;56298;49.246;9.410;2023-05-10T06:57:19;98964.53;;;17.12
69186;BMP280;56298;49.246;9.410;2023-05-10T06:59:44;98965.38;;;17.09
69186;BMP280;56298;49.246;9.410;2023-05-10T07:02:09;98968.75;;;16.86
69186;BMP280;56298;49.246;9.410;2023-05-10T07:04:35;98961.56;;;16.47
69186;BMP280;56298;49.246;9.410;2023-05-10T07:07:00;98967.22;;;16.25
69186;BMP280;56298;49.246;9.410;2023-05-10T07:09:26;98968.38;;;16.35
69186;BMP280;56298;49.246;9.410;2023-05-10T07:11:51;98965.91;;;16.48
69186;BMP280;56298;49.246;9.410;2023-05-10T07:14:16;98970.00;;;16.81
69186;BMP280;56298;49.246;9.410;2023-05-10T07:16:42;98971.22;;;17.19
69186;BMP280;56298;49.246;9.410;2023-05-10T07:19:07;98976.50;;;17.44
69186;BMP280;56298;49.246;9.410;2023-05-10T07:21:32;98983.38;;;17.63
69186;BMP280;56298;49.246;9.410;2023-05-10T07:23:57;98972.56;;;17.38
69186;BMP280;56298;49.246;9.410;2023-05-10T07:26:23;98980.09;;;17.41
69186;BMP280;56298;49.246;9.410;2023-05-10T07:28:49;98980.25;;;17.61
69186;BMP280;56298;49.246;9.410;2023-05-10T07:31:14;98986.91;;;17.67
69186;BMP280;56298;49.246;9.410;2023-05-10T07:33:39;98980.44;;;17.47
69186;BMP280;56298;49.246;9.410;2023-05-10T07:36:05;98985.38;;;17.28
69186;BMP280;56298;49.246;9.410;2023-05-10T07:38:30;98985.22;;;17.39
69186;BMP280;56298;49.246;9.410;2023-05-10T07:40:55;98987.06;;;17.53
69186;BMP280;56298;49.246;9.410;2023-05-10T07:43:20;98986.19;;;17.60
69186;BMP280;56298;49.246;9.410;2023-05-10T07:45:46;98987.84;;;17.57
69186;BMP280;56298;49.246;9.410;2023-05-10T07:48:11;98992.25;;;17.47
69186;BMP280;56298;49.246;9.410;2023-05-10T07:50:36;98986.53;;;17.31
69186;BMP280;56298;49.246;9.410;2023-05-10T07:53:01;98986.09;;;17.32
69186;BMP280;56298;49.246;9.410;2023-05-10T07:55:27;98994.25;;;17.08
69186;BMP280;56298;49.246;9.410;2023-05-10T07:57:52;99001.53;;;16.91
69186;BMP280;56298;49.246;9.410;2023-05-10T08:00:19;99005.75;;;16.61
69186;BMP280;56298;49.246;9.410;2023-05-10T08:02:45;99001.06;;;16.47
69186;BMP280;56298;49.246;9.410;2023-05-10T08:05:10;99009.41;;;16.51
69186;BMP280;56298;49.246;9.410;2023-05-10T08:07:35;99002.63;;;16.52
69186;BMP280;56298;49.246;9.410;2023-05-10T08:10:02;99006.91;;;16.64
69186;BMP280;56298;49.246;9.410;2023-05-10T08:12:27;99009.75;;;16.53
69186;BMP280;56298;49.246;9.410;2023-05-10T08:14:52;99012.88;;;16.59
69186;BMP280;56298;49.246;9.410;2023-05-10T08:17:18;99017.50;;;16.76
69186;BMP280;56298;49.246;9.410;2023-05-10T08:19:44;99023.47;;;16.71
69186;BMP280;56298;49.246;9.410;2023-05-10T08:22:09;99021.84;;;16.74
69186;BMP280;56298;49.246;9.410;2023-05-10T08:24:35;99024.59;;;16.74
69186;BMP280;56298;49.246;9.410;2023-05-10T08:27:05;99019.63;;;17.03
69186;BMP280;56298;49.246;9.410;2023-05-10T08:29:30;99027.78;;;17.21
69186;BMP280;56298;49.246;9.410;2023-05-10T08:31:56;99026.13;;;17.27
69186;BMP280;56298;49.246;9.410;2023-05-10T08:34:21;99028.16;;;17.23
69186;BMP280;56298;49.246;9.410;2023-05-10T08:36:46;99030.44;;;17.32
69186;BMP280;56298;49.246;9.410;2023-05-10T08:39:12;99034.09;;;17.60
69186;BMP280;56298;49.246;9.410;2023-05-10T08:41:39;99032.03;;;17.71
69186;BMP280;56298;49.246;9.410;2023-05-10T08:44:04;99018.16;;;18.03
69186;BMP280;56298;49.246;9.410;2023-05-10T08:46:30;99020.97;;;17.99
69186;BMP280;56298;49.246;9.410;2023-05-10T08:49:01;99028.88;;;18.00
69186;BMP280;56298;49.246;9.410;2023-05-10T08:51:27;99037.38;;;17.86
69186;BMP280;56298;49.246;9.410;2023-05-10T08:53:57;99033.91;;;17.78
69186;BMP280;56298;49.246;9.410;2023-05-10T08:56:23;99046.50;;;17.52
69186;BMP280;56298;49.246;9.410;2023-05-10T08:58:49;99041.72;;;17.56
69186;BMP280;56298;49.246;9.410;2023-05-10T09:01:16;99039.44;;;17.78
69186;BMP280;56298;49.246;9.410;2023-05-10T09:03:42;99036.03;;;18.29
69186;BMP280;56298;49.246;9.410;2023-05-10T09:06:07;99042.97;;;18.68
69186;BMP280;56298;49.246;9.410;2023-05-10T09:08:33;99043.63;;;19.24
69186;BMP280;56298;49.246;9.410;2023-05-10T09:11:00;99050.41;;;19.23
69186;BMP280;56298;49.246;9.410;2023-05-10T09:13:26;99043.84;;;19.33
69186;BMP280;56298;49.246;9.410;2023-05-10T09:15:51;99047.34;;;19.57
69186;BMP280;56298;49.246;9.410;2023-05-10T09:18:17;99054.78;;;19.64
69186;BMP280;56298;49.246;9.410;2023-05-10T09:20:43;99044.78;;;20.24
69186;BMP280;56298;49.246;9.410;2023-05-10T09:23:08;99045.50;;;20.44
69186;BMP280;56298;49.246;9.410;2023-05-10T09:25:33;99050.47;;;20.00
69186;BMP280;56298;49.246;9.410;2023-05-10T09:27:59;99052.03;;;20.01
69186;BMP280;56298;49.246;9.410;2023-05-10T09:30:30;99050.63;;;19.92
69186;BMP280;56298;49.246;9.410;2023-05-10T09:32:56;99057.13;;;20.23
69186;BMP280;56298;49.246;9.410;2023-05-10T09:35:24;99067.41;;;20.26
69186;BMP280;56298;49.246;9.410;2023-05-10T09:37:51;99062.09;;;20.31
69186;BMP280;56298;49.246;9.410;2023-05-10T09:40:18;99061.25;;;19.98
69186;BMP280;56298;49.246;9.410;2023-05-10T09:42:55;99070.34;;;19.98
69186;BMP280;56298;49.246;9.410;2023-05-10T09:45:22;99070.81;;;19.97
69186;BMP280;56298;49.246;9.410;2023-05-10T09:47:47;99069.53;;;20.18
69186;BMP280;56298;49.246;9.410;2023-05-10T09:50:13;99068.78;;;20.34
69186;BMP280;56298;49.246;9.410;2023-05-10T09:55:14;99071.25;;;19.95
69186;BMP280;56298;49.246;9.410;2023-05-10T09:57:40;99068.53;;;19.71
69186;BMP280;56298;49.246;9.410;2023-05-10T10:00:06;99075.00;;;19.85
69186;BMP280;56298;49.246;9.410;2023-05-10T10:02:32;99071.47;;;19.84
69186;BMP280;56298;49.246;9.410;2023-05-10T10:05:00;99071.06;;;20.02
69186;BMP280;56298;49.246;9.410;2023-05-10T10:07:26;99071.75;;;20.27
69186;BMP280;56298;49.246;9.410;2023-05-10T10:09:52;99068.97;;;20.60
69186;BMP280;56298;49.246;9.410;2023-05-10T10:12:18;99075.94;;;21.01
69186;BMP280;56298;49.246;9.410;2023-05-10T10:14:46;99067.84;;;21.36
69186;BMP280;56298;49.246;9.410;2023-05-10T10:17:11;99063.59;;;21.74
69186;BMP280;56298;49.246;9.410;2023-05-10T10:19:37;99056.75;;;21.62
69186;BMP280;56298;49.246;9.410;2023-05-10T10:22:02;99063.25;;;21.43
69186;BMP280;56298;49.246;9.410;2023-05-10T10:24:27;99054.66;;;21.79
69186;BMP280;56298;49.246;9.410;2023-05-10T10:26:55;99059.44;;;21.79
69186;BMP280;56298;49.246;9.410;2023-05-10T10:29:33;99059.06;;;22.06
69186;BMP280;56298;49.246;9.410;2023-05-10T10:32:18;99063.25;;;22.24
69186;BMP280;56298;49.246;9.410;2023-05-10T10:34:44;99061.38;;;22.34
69186;BMP280;56298;49.246;9.410;2023-05-10T10:37:10;99071.84;;;22.68
69186;BMP280;56298;49.246;9.410;2023-05-10T10:39:35;99070.56;;;22.95
69186;BMP280;56298;49.246;9.410;2023-05-10T10:42:02;99069.63;;;22.98
69186;BMP280;56298;49.246;9.410;2023-05-10T10:49:27;99051.09;;;23.99
69186;BMP280;56298;49.246;9.410;2023-05-10T10:52:17;99049.25;;;23.42
69186;BMP280;56298;49.246;9.410;2023-05-10T10:54:58;99054.22;;;23.16
69186;BMP280;56298;49.246;9.410;2023-05-10T10:57:25;99041.13;;;23.57
69186;BMP280;56298;49.246;9.410;2023-05-10T10:59:54;99045.34;;;24.03
69186;BMP280;56298;49.246;9.410;2023-05-10T11:02:47;99044.81;;;22.52
69186;BMP280;56298;49.246;9.410;2023-05-10T11:07:56;99057.06;;;21.22
69186;BMP280;56298;49.246;9.410;2023-05-10T11:10:23;99060.22;;;21.07
69186;BMP280;56298;49.246;9.410;2023-05-10T11:15:39;99063.25;;;20.50
69186;BMP280;56298;49.246;9.410;2023-05-10T11:18:25;99058.81;;;20.53
69186;BMP280;56298;49.246;9.410;2023-05-10T11:21:00;99058.25;;;21.08
69186;BMP280;56298;49.246;9.410;2023-05-10T11:23:31;99059.84;;;21.22
69186;BMP280;56298;49.246;9.410;2023-05-10T11:25:57;99057.75;;;21.26
69186;BMP280;56298;49.246;9.410;2023-05-10T11:28:23;99051.25;;;21.59
69186;BMP280;56298;49.246;9.410;2023-05-10T11:30:49;99052.09;;;21.43
69186;BMP280;56298;49.246;9.410;2023-05-10T11:33:19;99060.63;;;21.52
69186;BMP280;56298;49.246;9.410;2023-05-10T11:35:45;99057.53;;;21.33
69186;BMP280;56298;49.246;9.410;2023-05-10T11:38:11;99058.59;;;21.39
69186;BMP280;56298;49.246;9.410;2023-05-10T11:40:37;99060.94;;;20.95
69186;BMP280;56298;49.246;9.410;2023-05-10T11:43:03;99073.19;;;20.68
69186;BMP280;56298;49.246;9.410;2023-05-10T11:45:29;99067.59;;;20.51
69186;BMP280;56298;49.246;9.410;2023-05-10T11:47:57;99077.28;;;20.80
69186;BMP280;56298;49.246;9.410;2023-05-10T11:50:22;99070.25;;;21.05
69186;BMP280;56298;49.246;9.410;2023-05-10T11:52:57;99076.59;;;20.76
69186;BMP280;56298;49.246;9.410;2023-05-10T11:55:23;99090.75;;;20.65
69186;BMP280;56298;49.246;9.410;2023-05-10T11:57:53;99080.91;;;20.44
69186;BMP280;56298;49.246;9.410;2023-05-10T12:00:18;99084.94;;;20.06
69186;BMP280;56298;49.246;9.410;2023-05-10T12:02:44;99089.22;;;19.70
69186;BMP280;56298;49.246;9.410;2023-05-10T12:05:09;99080.44;;;19.08
69186;BMP280;56298;49.246;9.410;2023-05-10T12:07:35;99090.69;;;18.87
69186;BMP280;56298;49.246;9.410;2023-05-10T12:10:11;99102.25;;;18.58
69186;BMP280;56298;49.246;9.410;2023-05-10T12:12:47;99105.50;;;18.53
69186;BMP280;56298;49.246;9.410;2023-05-10T12:15:22;99107.34;;;18.36
69186;BMP280;56298;49.246;9.410;2023-05-10T12:17:49;99109.72;;;18.34
69186;BMP280;56298;49.246;9.410;2023-05-10T12:20:19;99113.94;;;18.46
69186;BMP280;56298;49.246;9.410;2023-05-10T12:22:50;99113.63;;;18.67
69186;BMP280;56298;49.246;9.410;2023-05-10T12:25:17;99116.50;;;18.87
69186;BMP280;56298;49.246;9.410;2023-05-10T12:27:53;99118.25;;;19.01
69186;BMP280;56298;49.246;9.410;2023-05-10T12:30:24;99111.47;;;19.02
69186;BMP280;56298;49.246;9.410;2023-05-10T12:32:50;99123.06;;;18.97
69186;BMP280;56298;49.246;9.410;2023-05-10T12:35:16;99125.84;;;18.97
69186;BMP280;56298;49.246;9.410;2023-05-10T12:37:42;99121.50;;;19.20
69186;BMP280;56298;49.246;9.410;2023-05-10T12:40:09;99123.47;;;19.23
69186;BMP280;56298;49.246;9.410;2023-05-10T12:42:35;99123.63;;;19.36
69186;BMP280;56298;49.246;9.410;2023-05-10T12:45:01;99121.72;;;19.53
69186;BMP280;56298;49.246;9.410;2023-05-10T12:47:27;99119.56;;;19.65
69186;BMP280;56298;49.246;9.410;2023-05-10T12:49:53;99116.47;;;19.59
69186;BMP280;56298;49.246;9.410;2023-05-10T12:52:18;99115.50;;;19.69
69186;BMP280;56298;49.246;9.410;2023-05-10T12:54:43;99129.16;;;19.60
69186;BMP280;56298;49.246;9.410;2023-05-10T12:57:08;99126.13;;;19.74
69186;BMP280;56298;49.246;9.410;2023-05-10T12:59:34;99126.34;;;19.84
69186;BMP280;56298;49.246;9.410;2023-05-10T13:01:59;99122.41;;;20.01
69186;BMP280;56298;49.246;9.410;2023-05-10T13:04:24;99124.16;;;20.32
69186;BMP280;56298;49.246;9.410;2023-05-10T13:06:50;99117.28;;;20.36
69186;BMP280;56298;49.246;9.410;2023-05-10T13:09:15;99124.50;;;19.53
69186;BMP280;56298;49.246;9.410;2023-05-10T13:11:41;99129.53;;;19.18
69186;BMP280;56298;49.246;9.410;2023-05-10T13:14:06;99125.88;;;19.21
69186;BMP280;56298;49.246;9.410;2023-05-10T13:16:32;99127.88;;;19.21
69186;BMP280;56298;49.246;9.410;2023-05-10T13:18:57;99128.28;;;19.43
69186;BMP280;56298;49.246;9.410;2023-05-10T13:21:23;99127.66;;;19.75
69186;BMP280;56298;49.246;9.410;2023-05-10T13:23:50;99134.03;;;20.16
69186;BMP280;56298;49.246;9.410;2023-05-10T13:26:15;99130.22;;;20.63
69186;BMP280;56298;49.246;9.410;2023-05-10T13:28:40;99134.13;;;20.99
69186;BMP280;56298;49.246;9.410;2023-05-10T13:31:05;99132.06;;;21.33
69186;BMP280;56298;49.246;9.410;2023-05-10T13:33:31;99122.22;;;21.74
69186;BMP280;56298;49.246;9.410;2023-05-10T13:35:56;99123.28;;;21.64
69186;BMP280;56298;49.246;9.410;2023-05-10T13:38:21;99127.41;;;21.59
69186;BMP280;56298;49.246;9.410;2023-05-10T13:40:46;99120.25;;;21.58
69186;BMP280;56298;49.246;9.410;2023-05-10T13:43:12;99122.53;;;21.47
69186;BMP280;56298;49.246;9.410;2023-05-10T13:45:37;99122.81;;;21.52
69186;BMP280;56298;49.246;9.410;2023-05-10T13:48:02;99118.16;;;21.62
69186;BMP280;56298;49.246;9.410;2023-05-10T13:50:28;99120.38;;;21.97
69186;BMP280;56298;49.246;9.410;2023-05-10T13:52:53;99117.94;;;21.69
69186;BMP280;56298;49.246;9.410;2023-05-10T13:55:18;99109.91;;;21.72
69186;BMP280;56298;49.246;9.410;2023-05-10T13:57:44;99116.09;;;21.92
69186;BMP280;56298;49.246;9.410;2023-05-10T14:00:10;99125.34;;;21.89
69186;BMP280;56298;49.246;9.410;2023-05-10T14:02:35;99125.75;;;21.75
69186;BMP280;56298;49.246;9.410;2023-05-10T14:05:00;99123.59;;;21.53
69186;BMP280;56298;49.246;9.410;2023-05-10T14:07:26;99118.88;;;21.50
69186;BMP280;56298;49.246;9.410;2023-05-10T14:09:51;99117.56;;;21.54
69186;BMP280;56298;49.246;9.410;2023-05-10T14:12:16;99109.22;;;21.67
69186;BMP280;56298;49.246;9.410;2023-05-10T14:14:42;99108.94;;;21.78
69186;BMP280;56298;49.246;9.410;2023-05-10T14:17:07;99103.34;;;21.91
69186;BMP280;56298;49.246;9.410;2023-05-10T14:19:32;99119.22;;;21.52
69186;BMP280;56298;49.246;9.410;2023-05-10T14:21:59;99107.53;;;21.57
69186;BMP280;56298;49.246;9.410;2023-05-10T14:24:25;99103.78;;;21.77
69186;BMP280;56298;49.246;9.410;2023-05-10T14:26:50;99103.88;;;21.73
69186;BMP280;56298;49.246;9.410;2023-05-10T14:29:18;99103.34;;;21.91
69186;BMP280;56298;49.246;9.410;2023-05-10T14:31:44;99106.72;;;22.12